Time;durP1;ratioP1;P1;durP2;ratioP2;P2;SDS_P1;SDS_P2;PMS_P1;PMS_P2;Temp;Humidity;BMP_temperature;BMP_pressure;BME280_temperature;BME280_humidity;BME280_pressure;Samples;Min_cycle;Max_cycle;Signal;HPM_P1;HPM_P2
2021/12/31 00:00:02;;;;;;;;;;;11.80;99.90;;;;;;5086429;28;19936;-71
2021/12/31 00:02:28;;;;;;;;;;;11.70;99.90;;;;;;5086298;28;19927;-69
2021/12/31 00:04:56;;;;;;;;;;;11.70;99.90;;;;;;5085725;28;19927;-70
2021/12/31 00:07:22;;;;;;;;;;;11.80;99.90;;;;;;5085944;28;19953;-71
2021/12/31 00:09:49;;;;;;;;;;;11.70;99.90;;;;;;5086248;28;20026;-70
2021/12/31 00:12:17;;;;;;;;;;;11.70;99.90;;;;;;5086109;28;19926;-69
2021/12/31 00:14:43;;;;;;;;;;;11.60;99.90;;;;;;5085800;28;20142;-70
2021/12/31 00:17:10;;;;;;;;;;;11.70;99.90;;;;;;5085975;28;19921;-69
2021/12/31 00:19:41;;;;;;;;;;;11.70;99.90;;;;;;5085825;28;19920;-70
2021/12/31 00:22:29;;;;;;;;;;;11.60;99.90;;;;;;5085833;28;19920;-70
2021/12/31 00:24:56;;;;;;;;;;;11.60;99.90;;;;;;5085485;28;19991;-69
2021/12/31 00:27:24;;;;;;;;;;;11.60;99.90;;;;;;5085625;28;19928;-68
2021/12/31 00:29:50;;;;;;;;;;;11.70;99.90;;;;;;5085742;28;20147;-68
2021/12/31 00:32:18;;;;;;;;;;;11.70;99.90;;;;;;5085703;28;19920;-68
2021/12/31 00:34:44;;;;;;;;;;;11.70;99.90;;;;;;5084912;28;19966;-69
2021/12/31 00:37:11;;;;;;;;;;;11.70;99.90;;;;;;5085247;28;19920;-69
2021/12/31 00:39:38;;;;;;;;;;;11.70;99.90;;;;;;5085494;28;19928;-67
2021/12/31 00:42:05;;;;;;;;;;;11.70;99.90;;;;;;5085193;28;19920;-68
2021/12/31 00:44:33;;;;;;;;;;;11.60;99.90;;;;;;5083779;28;20230;-68
2021/12/31 00:46:59;;;;;;;;;;;11.60;99.90;;;;;;5085316;28;20085;-68
2021/12/31 00:49:26;;;;;;;;;;;11.60;99.90;;;;;;5085458;28;20154;-68
2021/12/31 00:51:52;;;;;;;;;;;11.60;99.90;;;;;;5085416;28;19921;-69
2021/12/31 00:54:19;;;;;;;;;;;11.60;99.90;;;;;;5084904;28;19920;-69
2021/12/31 00:56:45;;;;;;;;;;;11.50;99.90;;;;;;5085329;28;19921;-69
2021/12/31 00:59:12;;;;;;;;;;;11.60;99.90;;;;;;5085079;28;20230;-69
2021/12/31 01:01:40;;;;;;;;;;;11.60;99.90;;;;;;5085173;28;19921;-69
2021/12/31 01:04:07;;;;;;;;;;;11.60;99.90;;;;;;5084615;28;19942;-69
2021/12/31 01:06:33;;;;;;;;;;;11.60;99.90;;;;;;5085151;28;19920;-68
2021/12/31 01:09:00;;;;;;;;;;;11.60;99.90;;;;;;5085072;28;19983;-68
2021/12/31 01:11:26;;;;;;;;;;;11.70;99.90;;;;;;5084803;28;19927;-68
2021/12/31 01:13:57;;;;;;;;;;;11.70;99.90;;;;;;5084390;28;20115;-68
2021/12/31 01:16:34;;;;;;;;;;;11.70;99.90;;;;;;5085109;28;19920;-72
2021/12/31 01:21:46;;;;;;;;;;;11.70;99.90;;;;;;5084528;28;19987;-68
2021/12/31 01:24:13;;;;;;;;;;;11.70;99.90;;;;;;5084486;28;19920;-69
2021/12/31 01:26:39;;;;;;;;;;;11.70;99.90;;;;;;5084488;28;19928;-69
2021/12/31 01:29:06;;;;;;;;;;;11.70;99.90;;;;;;5084785;28;19983;-68
2021/12/31 01:31:33;;;;;;;;;;;11.70;99.90;;;;;;5084727;28;19920;-69
2021/12/31 01:34:01;;;;;;;;;;;11.60;99.90;;;;;;5084171;28;20302;-69
2021/12/31 01:36:29;;;;;;;;;;;11.60;99.90;;;;;;5084331;28;19962;-67
2021/12/31 01:38:56;;;;;;;;;;;11.60;99.90;;;;;;5084620;28;19924;-68
2021/12/31 01:41:22;;;;;;;;;;;11.70;99.90;;;;;;5084160;28;20223;-69
2021/12/31 01:43:49;;;;;;;;;;;11.60;99.90;;;;;;5083802;28;20208;-69
2021/12/31 01:46:17;;;;;;;;;;;11.60;99.90;;;;;;5083759;28;20201;-69
2021/12/31 01:49:01;;;;;;;;;;;11.60;99.90;;;;;;5084195;28;20111;-68
2021/12/31 01:51:29;;;;;;;;;;;11.60;99.90;;;;;;5084052;28;19943;-69
2021/12/31 01:53:56;;;;;;;;;;;11.60;99.90;;;;;;5083510;28;19924;-69
2021/12/31 01:56:23;;;;;;;;;;;11.60;99.90;;;;;;5107140;22;19925;-72
2021/12/31 01:58:52;;;;;;;;;;;11.50;99.90;;;;;;5083210;28;19920;-74
2021/12/31 02:01:19;;;;;;;;;;;11.50;99.90;;;;;;5083579;28;19920;-75
2021/12/31 02:03:46;;;;;;;;;;;11.50;99.90;;;;;;5083587;28;19928;-74
2021/12/31 02:06:12;;;;;;;;;;;11.50;99.90;;;;;;5083598;28;19942;-75
2021/12/31 02:08:46;;;;;;;;;;;11.50;99.90;;;;;;5083226;28;19924;-75
2021/12/31 02:11:16;;;;;;;;;;;11.50;99.90;;;;;;5084012;28;19927;-73
2021/12/31 02:13:42;;;;;;;;;;;11.60;99.90;;;;;;5083462;28;19921;-73
2021/12/31 02:16:09;;;;;;;;;;;11.50;99.90;;;;;;5083836;28;20111;-73
2021/12/31 02:18:36;;;;;;;;;;;11.50;99.90;;;;;;5083604;28;19920;-73
2021/12/31 02:21:08;;;;;;;;;;;11.50;99.90;;;;;;5083474;28;19921;-73
2021/12/31 02:23:42;;;;;;;;;;;11.50;99.90;;;;;;5083780;28;20111;-73
2021/12/31 02:26:09;;;;;;;;;;;11.50;99.90;;;;;;5083902;28;19973;-74
2021/12/31 02:28:36;;;;;;;;;;;11.50;99.90;;;;;;5083882;28;19927;-74
2021/12/31 02:31:03;;;;;;;;;;;11.50;99.90;;;;;;5083864;28;19922;-73
2021/12/31 02:33:30;;;;;;;;;;;11.50;99.90;;;;;;5083630;28;19920;-73
2021/12/31 02:35:57;;;;;;;;;;;11.50;99.90;;;;;;5083446;28;19942;-73
2021/12/31 02:38:25;;;;;;;;;;;11.40;99.90;;;;;;5083740;28;20093;-73
2021/12/31 02:40:51;;;;;;;;;;;11.50;99.90;;;;;;5083369;28;20211;-73
2021/12/31 02:43:18;;;;;;;;;;;11.50;99.90;;;;;;5083703;28;19927;-74
2021/12/31 02:45:44;;;;;;;;;;;11.50;99.90;;;;;;5083105;28;19936;-74
2021/12/31 02:48:11;;;;;;;;;;;11.50;99.90;;;;;;5083631;28;19927;-73
2021/12/31 02:50:40;;;;;;;;;;;11.50;99.90;;;;;;5083306;28;20267;-73
2021/12/31 02:53:08;;;;;;;;;;;11.40;99.90;;;;;;5083328;28;20226;-74
2021/12/31 02:55:37;;;;;;;;;;;11.50;99.90;;;;;;5082941;28;19920;-73
2021/12/31 02:58:05;;;;;;;;;;;11.50;99.90;;;;;;5083515;28;19927;-74
2021/12/31 03:00:32;;;;;;;;;;;11.40;99.90;;;;;;5083584;28;19920;-74
2021/12/31 03:02:59;;;;;;;;;;;11.40;99.90;;;;;;5083372;28;19920;-73
2021/12/31 03:05:27;;;;;;;;;;;11.50;99.90;;;;;;5083145;28;19920;-74
2021/12/31 03:07:54;;;;;;;;;;;11.40;99.90;;;;;;5083078;28;20231;-74
2021/12/31 03:10:21;;;;;;;;;;;11.40;99.90;;;;;;5083402;28;19920;-74
2021/12/31 03:12:51;;;;;;;;;;;11.40;99.90;;;;;;5087320;28;19920;-73
2021/12/31 03:15:18;;;;;;;;;;;11.40;99.90;;;;;;5086850;28;19921;-72
2021/12/31 03:17:45;;;;;;;;;;;11.40;99.90;;;;;;5087209;28;19930;-73
2021/12/31 03:20:14;;;;;;;;;;;11.40;99.90;;;;;;5087141;28;19920;-73
2021/12/31 03:22:41;;;;;;;;;;;11.40;99.90;;;;;;5087147;28;19920;-73
2021/12/31 03:25:09;;;;;;;;;;;11.40;99.90;;;;;;5086910;28;19920;-74
2021/12/31 03:27:36;;;;;;;;;;;11.40;99.90;;;;;;5087116;28;19927;-73
2021/12/31 03:30:04;;;;;;;;;;;11.40;99.90;;;;;;5086934;28;19924;-73
2021/12/31 03:32:31;;;;;;;;;;;11.40;99.90;;;;;;5086482;28;20204;-73
2021/12/31 03:34:58;;;;;;;;;;;11.30;99.90;;;;;;5086578;28;19927;-72
2021/12/31 03:37:24;;;;;;;;;;;11.30;99.90;;;;;;5086817;28;20131;-73
2021/12/31 03:39:51;;;;;;;;;;;11.30;99.90;;;;;;5086825;28;20146;-73
2021/12/31 03:42:18;;;;;;;;;;;11.40;99.90;;;;;;5086712;28;19920;-73
2021/12/31 03:44:45;;;;;;;;;;;11.40;99.90;;;;;;5086576;28;19920;-73
2021/12/31 03:47:13;;;;;;;;;;;11.30;99.90;;;;;;5086574;28;19921;-73
2021/12/31 03:49:40;;;;;;;;;;;11.30;99.90;;;;;;5086345;28;19921;-73
2021/12/31 03:52:06;;;;;;;;;;;11.40;99.90;;;;;;5086374;28;19996;-71
2021/12/31 03:54:33;;;;;;;;;;;11.40;99.90;;;;;;5086028;28;19926;-73
2021/12/31 03:57:00;;;;;;;;;;;11.40;99.90;;;;;;5086407;28;19983;-73
2021/12/31 03:59:26;;;;;;;;;;;11.40;99.90;;;;;;5086417;28;20068;-72
2021/12/31 04:01:53;;;;;;;;;;;11.40;99.90;;;;;;5086322;28;19921;-73
2021/12/31 04:04:21;;;;;;;;;;;11.40;99.90;;;;;;5085641;28;20203;-73
2021/12/31 04:06:47;;;;;;;;;;;11.30;99.90;;;;;;5086437;28;19920;-72
2021/12/31 04:09:14;;;;;;;;;;;11.30;99.90;;;;;;5086011;28;19921;-73
2021/12/31 04:11:40;;;;;;;;;;;11.40;99.90;;;;;;5086366;28;19920;-75
2021/12/31 04:14:07;;;;;;;;;;;11.30;99.90;;;;;;5085997;28;19920;-73
2021/12/31 04:16:34;;;;;;;;;;;11.30;99.90;;;;;;5085851;28;20112;-73
2021/12/31 04:19:01;;;;;;;;;;;11.30;99.90;;;;;;5086152;28;19935;-73
2021/12/31 04:21:30;;;;;;;;;;;11.30;99.90;;;;;;5085744;28;20143;-73
2021/12/31 04:24:06;;;;;;;;;;;11.30;99.90;;;;;;5085641;28;19943;-73
2021/12/31 04:26:33;;;;;;;;;;;11.30;99.90;;;;;;5085883;28;19921;-73
2021/12/31 04:29:00;;;;;;;;;;;11.30;99.90;;;;;;5085729;28;20234;-73
2021/12/31 04:31:26;;;;;;;;;;;11.30;99.90;;;;;;5085776;28;19920;-73
2021/12/31 04:33:53;;;;;;;;;;;11.30;99.90;;;;;;5085280;28;19921;-73
2021/12/31 04:36:19;;;;;;;;;;;11.30;99.90;;;;;;5085381;28;19921;-73
2021/12/31 04:38:47;;;;;;;;;;;11.30;99.90;;;;;;5085804;28;19920;-73
2021/12/31 04:41:14;;;;;;;;;;;11.30;99.90;;;;;;5085750;28;19943;-73
2021/12/31 04:43:40;;;;;;;;;;;11.30;99.90;;;;;;5085489;28;19921;-73
2021/12/31 04:46:07;;;;;;;;;;;11.20;99.90;;;;;;5085463;28;19950;-73
2021/12/31 04:48:34;;;;;;;;;;;11.20;99.90;;;;;;5085377;28;20204;-73
2021/12/31 04:51:00;;;;;;;;;;;11.30;99.90;;;;;;5085568;28;19983;-73
2021/12/31 04:53:27;;;;;;;;;;;11.20;99.90;;;;;;5085533;28;19920;-73
2021/12/31 04:55:55;;;;;;;;;;;11.20;99.90;;;;;;5084887;28;19920;-73
2021/12/31 04:58:21;;;;;;;;;;;11.20;99.90;;;;;;5085246;28;20116;-73
2021/12/31 05:00:48;;;;;;;;;;;11.20;99.90;;;;;;5085180;28;19996;-72
2021/12/31 05:03:15;;;;;;;;;;;11.20;99.90;;;;;;5085084;28;19920;-73
2021/12/31 05:05:41;;;;;;;;;;;11.10;99.90;;;;;;5084648;28;19924;-73
2021/12/31 05:08:08;;;;;;;;;;;11.20;99.90;;;;;;5084938;28;19920;-73
2021/12/31 05:10:35;;;;;;;;;;;11.20;99.90;;;;;;5085070;28;19943;-73
2021/12/31 05:13:04;;;;;;;;;;;11.20;99.90;;;;;;5084967;28;20112;-73
2021/12/31 05:15:36;;;;;;;;;;;11.20;99.90;;;;;;5084696;28;19927;-73
2021/12/31 05:18:03;;;;;;;;;;;11.20;99.90;;;;;;5084736;28;20228;-73
2021/12/31 05:20:29;;;;;;;;;;;11.20;99.90;;;;;;5084548;28;19920;-73
2021/12/31 05:22:57;;;;;;;;;;;11.20;99.90;;;;;;5084806;28;19921;-73
2021/12/31 05:25:24;;;;;;;;;;;11.20;99.90;;;;;;5084415;28;20246;-73
2021/12/31 05:27:50;;;;;;;;;;;11.20;99.90;;;;;;5084413;28;19921;-73
2021/12/31 05:30:19;;;;;;;;;;;11.10;99.90;;;;;;5084667;28;19988;-73
2021/12/31 05:32:45;;;;;;;;;;;11.10;99.90;;;;;;5084498;28;19927;-73
2021/12/31 05:35:12;;;;;;;;;;;11.10;99.90;;;;;;5083437;28;19921;-74
2021/12/31 05:37:39;;;;;;;;;;;11.20;99.90;;;;;;5084569;28;19921;-73
2021/12/31 05:40:06;;;;;;;;;;;11.10;99.90;;;;;;5084538;28;19927;-73
2021/12/31 05:42:33;;;;;;;;;;;11.10;99.90;;;;;;5084422;28;19926;-73
2021/12/31 05:44:59;;;;;;;;;;;11.10;99.90;;;;;;5084213;28;20203;-73
2021/12/31 05:47:27;;;;;;;;;;;11.10;99.90;;;;;;5083993;28;19943;-73
2021/12/31 05:49:54;;;;;;;;;;;11.10;99.90;;;;;;5084261;28;19925;-72
2021/12/31 05:52:21;;;;;;;;;;;11.10;99.90;;;;;;5084261;28;19920;-73
2021/12/31 05:54:47;;;;;;;;;;;11.10;99.90;;;;;;5083512;28;19962;-73
2021/12/31 05:57:14;;;;;;;;;;;11.00;99.90;;;;;;5084251;28;19991;-73
2021/12/31 05:59:40;;;;;;;;;;;11.00;99.90;;;;;;5083736;28;19921;-73
2021/12/31 06:02:07;;;;;;;;;;;11.10;99.90;;;;;;5083990;28;19924;-73
2021/12/31 06:04:36;;;;;;;;;;;11.00;99.90;;;;;;5083901;28;19927;-72
2021/12/31 06:07:02;;;;;;;;;;;11.10;99.90;;;;;;5084164;28;19920;-73
2021/12/31 06:09:30;;;;;;;;;;;11.00;99.90;;;;;;5084030;28;19921;-73
2021/12/31 06:11:57;;;;;;;;;;;11.00;99.90;;;;;;5084038;28;20150;-73
2021/12/31 06:14:23;;;;;;;;;;;11.00;99.90;;;;;;5083714;28;19924;-74
2021/12/31 06:16:50;;;;;;;;;;;10.90;99.90;;;;;;5083975;28;19927;-74
2021/12/31 06:19:16;;;;;;;;;;;10.90;99.90;;;;;;5083886;28;19983;-74
2021/12/31 06:21:46;;;;;;;;;;;10.90;99.90;;;;;;5083768;28;19927;-73
2021/12/31 06:24:12;;;;;;;;;;;11.00;99.90;;;;;;5083421;28;19978;-74
2021/12/31 06:26:39;;;;;;;;;;;11.00;99.90;;;;;;5083857;28;19920;-74
2021/12/31 06:29:05;;;;;;;;;;;10.90;99.90;;;;;;5083566;28;19924;-74
2021/12/31 06:31:32;;;;;;;;;;;10.90;99.90;;;;;;5083780;28;19931;-74
2021/12/31 06:33:59;;;;;;;;;;;10.90;99.90;;;;;;5083545;28;19966;-73
2021/12/31 06:36:25;;;;;;;;;;;10.90;99.90;;;;;;5083704;28;19920;-74
2021/12/31 06:38:53;;;;;;;;;;;10.90;99.90;;;;;;5083813;28;19920;-74
2021/12/31 06:41:20;;;;;;;;;;;10.90;99.90;;;;;;5083455;28;19920;-73
2021/12/31 06:43:46;;;;;;;;;;;10.90;99.90;;;;;;5083349;28;19992;-72
2021/12/31 06:46:13;;;;;;;;;;;10.90;99.90;;;;;;5079353;28;20226;-73
2021/12/31 06:48:40;;;;;;;;;;;10.90;99.90;;;;;;5087861;28;19924;-74
2021/12/31 06:51:06;;;;;;;;;;;10.90;99.90;;;;;;5069917;28;20213;-74
2021/12/31 06:53:33;;;;;;;;;;;10.90;99.90;;;;;;5069945;28;19921;-72
2021/12/31 06:56:01;;;;;;;;;;;10.80;99.90;;;;;;5069675;28;19921;-74
2021/12/31 06:58:27;;;;;;;;;;;10.80;99.90;;;;;;5069698;28;19921;-74
2021/12/31 07:00:54;;;;;;;;;;;10.80;99.90;;;;;;5069887;28;20188;-74
2021/12/31 07:03:20;;;;;;;;;;;10.70;99.90;;;;;;5069767;28;19925;-73
2021/12/31 07:05:47;;;;;;;;;;;10.70;99.90;;;;;;5069706;28;19992;-74
2021/12/31 07:08:14;;;;;;;;;;;10.70;99.90;;;;;;5069760;28;19921;-73
2021/12/31 07:10:40;;;;;;;;;;;10.60;99.90;;;;;;5070006;28;19928;-73
2021/12/31 07:13:11;;;;;;;;;;;10.60;99.90;;;;;;5070016;28;19920;-73
2021/12/31 07:15:38;;;;;;;;;;;10.60;99.90;;;;;;5069613;28;19943;-72
2021/12/31 07:18:05;;;;;;;;;;;10.60;99.90;;;;;;5069963;28;20141;-73
2021/12/31 07:20:32;;;;;;;;;;;10.50;99.90;;;;;;5069941;28;19927;-73
2021/12/31 07:23:03;;;;;;;;;;;10.40;99.90;;;;;;5069935;28;19927;-74
2021/12/31 07:25:29;;;;;;;;;;;10.50;99.90;;;;;;5069474;28;19927;-73
2021/12/31 07:27:56;;;;;;;;;;;10.50;99.90;;;;;;5069441;28;19928;-73
2021/12/31 07:30:24;;;;;;;;;;;10.40;99.90;;;;;;5069470;28;20223;-73
2021/12/31 07:32:50;;;;;;;;;;;10.40;99.90;;;;;;5069780;28;19921;-73
2021/12/31 07:35:17;;;;;;;;;;;10.40;99.90;;;;;;5069419;28;19921;-73
2021/12/31 07:37:43;;;;;;;;;;;10.50;99.90;;;;;;5069751;28;19920;-73
2021/12/31 07:40:12;;;;;;;;;;;10.40;99.90;;;;;;5069842;28;20063;-73
2021/12/31 07:42:38;;;;;;;;;;;10.40;99.90;;;;;;5069650;28;19928;-73
2021/12/31 07:45:05;;;;;;;;;;;10.40;99.90;;;;;;5069173;28;19927;-73
2021/12/31 07:47:33;;;;;;;;;;;10.40;99.90;;;;;;5069779;28;19920;-73
2021/12/31 07:50:00;;;;;;;;;;;10.40;99.90;;;;;;5069719;28;19921;-74
2021/12/31 07:52:26;;;;;;;;;;;10.30;99.90;;;;;;5069409;28;19920;-73
2021/12/31 07:54:53;;;;;;;;;;;10.30;99.90;;;;;;5086022;22;19931;-69
2021/12/31 07:57:20;;;;;;;;;;;10.30;99.90;;;;;;5106765;28;19920;-70
2021/12/31 07:59:46;;;;;;;;;;;10.40;99.90;;;;;;5106326;28;19920;-69
2021/12/31 08:02:13;;;;;;;;;;;10.40;99.90;;;;;;5106390;28;19919;-69
2021/12/31 08:04:40;;;;;;;;;;;10.40;99.90;;;;;;5106061;28;19927;-70
2021/12/31 08:07:07;;;;;;;;;;;10.50;99.90;;;;;;5106210;28;19920;-69
2021/12/31 08:09:34;;;;;;;;;;;10.50;99.90;;;;;;5105431;28;19932;-69
2021/12/31 08:12:00;;;;;;;;;;;10.50;99.90;;;;;;5106167;28;19979;-70
2021/12/31 08:14:27;;;;;;;;;;;10.50;99.90;;;;;;5105768;28;19928;-69
2021/12/31 08:16:53;;;;;;;;;;;10.40;99.90;;;;;;5105818;28;20211;-69
2021/12/31 08:19:20;;;;;;;;;;;10.50;99.90;;;;;;5106197;28;20217;-69
2021/12/31 08:21:48;;;;;;;;;;;10.40;99.90;;;;;;5106135;28;20115;-69
2021/12/31 08:24:14;;;;;;;;;;;10.50;99.90;;;;;;5105764;28;19962;-70
2021/12/31 08:26:41;;;;;;;;;;;10.50;99.90;;;;;;5105955;28;19928;-69
2021/12/31 08:29:08;;;;;;;;;;;10.50;99.90;;;;;;5105984;28;19957;-69
2021/12/31 08:31:35;;;;;;;;;;;10.50;99.90;;;;;;5105652;28;20122;-70
2021/12/31 08:34:01;;;;;;;;;;;10.50;99.90;;;;;;5106280;28;19928;-69
2021/12/31 08:36:28;;;;;;;;;;;10.50;99.90;;;;;;5107140;28;19930;-70
2021/12/31 08:38:56;;;;;;;;;;;10.40;99.90;;;;;;5106020;28;19927;-69
2021/12/31 08:41:23;;;;;;;;;;;10.50;99.90;;;;;;5105534;28;19927;-70
2021/12/31 08:43:50;;;;;;;;;;;10.40;99.90;;;;;;5105225;28;19920;-69
2021/12/31 08:46:16;;;;;;;;;;;10.50;99.90;;;;;;5105381;28;19932;-70
2021/12/31 08:48:43;;;;;;;;;;;10.50;99.90;;;;;;5105663;28;19926;-69
2021/12/31 08:51:09;;;;;;;;;;;10.50;99.90;;;;;;5105355;28;19920;-69
2021/12/31 08:53:36;;;;;;;;;;;10.50;99.90;;;;;;5105065;28;19932;-69
2021/12/31 08:56:04;;;;;;;;;;;10.50;99.90;;;;;;5104693;28;19920;-69
2021/12/31 08:58:31;;;;;;;;;;;10.50;99.90;;;;;;5105466;28;19924;-69
2021/12/31 09:00:57;;;;;;;;;;;10.50;99.90;;;;;;5105722;28;19920;-70
2021/12/31 09:03:24;;;;;;;;;;;10.60;99.90;;;;;;5105438;28;19961;-68
2021/12/31 09:05:50;;;;;;;;;;;10.60;99.90;;;;;;5104888;28;20208;-69
2021/12/31 09:08:17;;;;;;;;;;;10.60;99.90;;;;;;5104383;28;20142;-68
2021/12/31 09:10:44;;;;;;;;;;;10.60;99.90;;;;;;5105439;28;19924;-68
2021/12/31 09:13:12;;;;;;;;;;;10.60;99.90;;;;;;5105551;28;19920;-69
2021/12/31 09:15:38;;;;;;;;;;;10.60;99.90;;;;;;5104971;28;19928;-69
2021/12/31 09:18:05;;;;;;;;;;;10.70;99.90;;;;;;5105234;28;19920;-68
2021/12/31 09:20:31;;;;;;;;;;;10.70;99.90;;;;;;5105136;28;19927;-69
2021/12/31 09:22:58;;;;;;;;;;;10.70;99.90;;;;;;5105189;28;19924;-68
2021/12/31 09:25:25;;;;;;;;;;;10.70;99.90;;;;;;5104503;28;20353;-68
2021/12/31 09:27:51;;;;;;;;;;;10.70;99.90;;;;;;5105071;28;19943;-68
2021/12/31 09:30:19;;;;;;;;;;;10.70;99.90;;;;;;5104981;28;19920;-69
2021/12/31 09:32:46;;;;;;;;;;;10.70;99.90;;;;;;5104739;28;20222;-69
2021/12/31 09:35:12;;;;;;;;;;;10.80;99.90;;;;;;5104254;28;19920;-69
2021/12/31 09:37:39;;;;;;;;;;;10.80;99.90;;;;;;5103853;28;19927;-69
2021/12/31 09:40:06;;;;;;;;;;;10.80;99.90;;;;;;5104592;28;19926;-69
2021/12/31 09:42:33;;;;;;;;;;;10.80;99.90;;;;;;5103494;28;19920;-69
2021/12/31 09:45:00;;;;;;;;;;;10.90;99.90;;;;;;5103905;28;20230;-69
2021/12/31 09:47:28;;;;;;;;;;;10.90;99.90;;;;;;5104066;28;19926;-68
2021/12/31 09:49:54;;;;;;;;;;;10.90;99.90;;;;;;5104407;28;19920;-69
2021/12/31 09:52:21;;;;;;;;;;;11.00;99.90;;;;;;5104342;28;19920;-69
2021/12/31 09:54:49;;;;;;;;;;;11.00;99.90;;;;;;5103600;28;19920;-69
2021/12/31 09:57:16;;;;;;;;;;;11.00;99.90;;;;;;5104346;28;19939;-69
2021/12/31 09:59:42;;;;;;;;;;;11.00;99.90;;;;;;5104169;28;19928;-68
2021/12/31 10:02:10;;;;;;;;;;;11.00;99.90;;;;;;5104242;28;19926;-69
2021/12/31 10:04:54;;;;;;;;;;;11.10;99.90;;;;;;5103705;28;19942;-68
2021/12/31 10:07:23;;;;;;;;;;;11.10;99.90;;;;;;5103749;28;19926;-69
2021/12/31 10:10:03;;;;;;;;;;;11.20;99.90;;;;;;5104076;28;19955;-68
2021/12/31 10:12:43;;;;;;;;;;;11.20;99.90;;;;;;5103661;28;19920;-69
2021/12/31 10:15:09;;;;;;;;;;;11.20;99.90;;;;;;5103542;28;19924;-69
2021/12/31 10:17:36;;;;;;;;;;;11.30;99.90;;;;;;5103789;28;19931;-69
2021/12/31 10:20:05;;;;;;;;;;;11.30;99.90;;;;;;5103286;28;19928;-69
2021/12/31 10:22:31;;;;;;;;;;;11.40;99.90;;;;;;5103801;28;19920;-69
2021/12/31 10:24:58;;;;;;;;;;;11.40;99.90;;;;;;5103186;28;19927;-69
2021/12/31 10:27:25;;;;;;;;;;;11.50;99.90;;;;;;5103714;28;19962;-69
2021/12/31 10:29:52;;;;;;;;;;;11.60;99.90;;;;;;5103754;28;19920;-69
2021/12/31 10:32:22;;;;;;;;;;;11.70;99.90;;;;;;5103422;28;19981;-69
2021/12/31 10:34:49;;;;;;;;;;;11.70;99.90;;;;;;5103343;28;19928;-68
2021/12/31 10:37:18;;;;;;;;;;;11.80;99.90;;;;;;5103791;28;19927;-72
2021/12/31 10:39:45;;;;;;;;;;;12.00;99.90;;;;;;5102790;28;19924;-69
2021/12/31 10:42:12;;;;;;;;;;;12.10;99.90;;;;;;5103583;28;20123;-69
2021/12/31 10:44:46;;;;;;;;;;;12.20;99.90;;;;;;5102991;28;19920;-68
2021/12/31 10:47:14;;;;;;;;;;;12.30;99.90;;;;;;5103446;28;19920;-69
2021/12/31 10:50:00;;;;;;;;;;;12.50;99.90;;;;;;5103716;28;19920;-68
2021/12/31 10:52:33;;;;;;;;;;;12.60;99.90;;;;;;5103244;28;19920;-69
2021/12/31 10:55:02;;;;;;;;;;;12.70;99.90;;;;;;5103016;28;20172;-69
2021/12/31 10:57:34;;;;;;;;;;;12.80;99.90;;;;;;5103280;28;19924;-69
2021/12/31 11:00:01;;;;;;;;;;;12.90;99.90;;;;;;5103478;28;19927;-69
2021/12/31 11:02:28;;;;;;;;;;;13.00;99.90;;;;;;5103253;28;19920;-69
2021/12/31 11:04:55;;;;;;;;;;;13.10;99.90;;;;;;5102895;28;19924;-69
2021/12/31 11:07:21;;;;;;;;;;;13.30;99.90;;;;;;5103157;28;19926;-69
2021/12/31 11:09:50;;;;;;;;;;;13.30;99.90;;;;;;5103612;28;20098;-69
2021/12/31 11:12:17;;;;;;;;;;;13.50;99.90;;;;;;5103530;28;19920;-69
2021/12/31 11:14:44;;;;;;;;;;;13.50;99.90;;;;;;5102773;28;19924;-69
2021/12/31 11:17:10;;;;;;;;;;;13.60;99.90;;;;;;5102587;28;20233;-68
2021/12/31 11:19:39;;;;;;;;;;;13.60;99.90;;;;;;5102869;28;20108;-70
2021/12/31 11:22:06;;;;;;;;;;;13.70;99.90;;;;;;5102948;28;19992;-69
2021/12/31 11:24:36;;;;;;;;;;;13.80;99.90;;;;;;5102272;28;19920;-71
2021/12/31 11:27:17;;;;;;;;;;;13.80;99.90;;;;;;5103546;28;19975;-69
2021/12/31 11:29:45;;;;;;;;;;;13.90;99.90;;;;;;5103216;28;19988;-68
2021/12/31 11:32:12;;;;;;;;;;;14.00;99.90;;;;;;5104546;28;19920;-69
2021/12/31 11:34:38;;;;;;;;;;;14.00;99.90;;;;;;5107111;28;19926;-69
2021/12/31 11:37:05;;;;;;;;;;;14.10;99.90;;;;;;5106870;28;19920;-70
2021/12/31 11:39:33;;;;;;;;;;;14.20;99.90;;;;;;5106994;28;19920;-69
2021/12/31 11:42:00;;;;;;;;;;;14.30;99.90;;;;;;5107008;28;19987;-72
2021/12/31 11:44:27;;;;;;;;;;;14.40;99.90;;;;;;5106537;28;19920;-70
2021/12/31 11:47:15;;;;;;;;;;;14.50;99.90;;;;;;5106616;28;19966;-70
2021/12/31 11:49:41;;;;;;;;;;;14.50;99.90;;;;;;5106927;28;19967;-68
2021/12/31 11:52:09;;;;;;;;;;;14.60;99.90;;;;;;5106855;28;19987;-68
2021/12/31 11:54:36;;;;;;;;;;;14.70;99.90;;;;;;5106409;28;19920;-68
2021/12/31 11:57:10;;;;;;;;;;;14.70;99.90;;;;;;5106593;28;20051;-68
2021/12/31 11:59:38;;;;;;;;;;;14.60;99.90;;;;;;5106550;28;19920;-70
2021/12/31 12:02:06;;;;;;;;;;;14.70;99.90;;;;;;5105113;28;20203;-69
2021/12/31 12:04:35;;;;;;;;;;;14.80;99.90;;;;;;5105901;28;19927;-68
2021/12/31 12:07:02;;;;;;;;;;;14.90;99.90;;;;;;5106148;28;19920;-70
2021/12/31 12:09:43;;;;;;;;;;;15.00;99.90;;;;;;5106235;28;19920;-66
2021/12/31 12:12:11;;;;;;;;;;;15.10;99.90;;;;;;5105442;28;19920;-72
2021/12/31 12:14:40;;;;;;;;;;;15.20;99.90;;;;;;5105884;28;20122;-71
2021/12/31 12:17:07;;;;;;;;;;;15.20;99.90;;;;;;5106171;28;19920;-68
2021/12/31 12:19:49;;;;;;;;;;;15.30;99.90;;;;;;5106238;28;19927;-68
2021/12/31 12:22:25;;;;;;;;;;;15.40;99.90;;;;;;5105217;28;20008;-70
2021/12/31 12:24:53;;;;;;;;;;;15.60;99.90;;;;;;5105474;28;20010;-74
2021/12/31 12:27:21;;;;;;;;;;;15.70;99.90;;;;;;5105867;28;19920;-73
2021/12/31 12:29:48;;;;;;;;;;;15.80;99.90;;;;;;5106202;28;19955;-70
2021/12/31 12:32:16;;;;;;;;;;;15.90;99.90;;;;;;5105648;28;19924;-70
2021/12/31 12:34:42;;;;;;;;;;;16.10;99.90;;;;;;5105451;28;19920;-70
2021/12/31 12:37:10;;;;;;;;;;;16.20;99.90;;;;;;5105328;28;20126;-69
2021/12/31 12:39:38;;;;;;;;;;;16.30;99.90;;;;;;5105941;28;19920;-69
2021/12/31 12:42:07;;;;;;;;;;;16.40;99.90;;;;;;5105698;28;20204;-69
2021/12/31 12:44:34;;;;;;;;;;;16.30;99.90;;;;;;5105061;28;19947;-70
2021/12/31 12:47:01;;;;;;;;;;;16.10;99.90;;;;;;5102398;28;19943;-70
2021/12/31 12:49:27;;;;;;;;;;;16.20;99.90;;;;;;5089299;28;19926;-69
2021/12/31 12:51:56;;;;;;;;;;;16.10;99.90;;;;;;5098000;28;19927;-69
2021/12/31 12:54:23;;;;;;;;;;;16.00;99.90;;;;;;5084863;28;20184;-70
2021/12/31 12:56:52;;;;;;;;;;;15.90;99.90;;;;;;5097037;28;20085;-69
2021/12/31 12:59:21;;;;;;;;;;;15.80;99.90;;;;;;5105176;28;19920;-69
2021/12/31 13:01:48;;;;;;;;;;;15.70;99.90;;;;;;5105171;28;19920;-69
2021/12/31 13:04:15;;;;;;;;;;;15.50;99.90;;;;;;5104766;28;20203;-69
2021/12/31 13:06:43;;;;;;;;;;;15.30;99.90;;;;;;5104764;28;20203;-69
2021/12/31 13:09:13;;;;;;;;;;;15.10;99.90;;;;;;5104981;28;19920;-69
2021/12/31 13:11:41;;;;;;;;;;;15.10;99.90;;;;;;5104090;28;19920;-69
2021/12/31 13:14:13;;;;;;;;;;;14.90;99.90;;;;;;5104545;28;19987;-69
2021/12/31 13:16:40;;;;;;;;;;;14.80;99.90;;;;;;5104762;28;19920;-69
2021/12/31 13:19:09;;;;;;;;;;;14.70;99.90;;;;;;5104638;28;19926;-69
2021/12/31 13:21:36;;;;;;;;;;;14.50;99.90;;;;;;5104957;28;19927;-69
2021/12/31 13:24:03;;;;;;;;;;;14.40;99.90;;;;;;5104438;28;19935;-69
2021/12/31 13:26:30;;;;;;;;;;;14.40;99.90;;;;;;5104885;28;19920;-69
2021/12/31 13:28:58;;;;;;;;;;;14.30;99.90;;;;;;5104626;28;19926;-69
2021/12/31 13:31:33;;;;;;;;;;;14.20;99.90;;;;;;5104591;28;19920;-69
2021/12/31 13:34:10;;;;;;;;;;;14.20;99.90;;;;;;5104516;28;19965;-69
2021/12/31 13:36:44;;;;;;;;;;;14.10;99.90;;;;;;5104520;28;19920;-69
2021/12/31 13:39:13;;;;;;;;;;;14.00;99.90;;;;;;5104442;28;19927;-68
2021/12/31 13:41:51;;;;;;;;;;;13.90;99.90;;;;;;5104275;28;19920;-69
2021/12/31 13:44:19;;;;;;;;;;;13.80;99.90;;;;;;5104075;28;19926;-69
2021/12/31 13:46:48;;;;;;;;;;;13.70;99.90;;;;;;5104285;28;19920;-69
2021/12/31 13:49:18;;;;;;;;;;;13.70;99.90;;;;;;5104349;28;19920;-68
2021/12/31 13:51:45;;;;;;;;;;;13.70;99.90;;;;;;5104071;28;19920;-69
2021/12/31 13:54:12;;;;;;;;;;;13.60;99.90;;;;;;5103368;28;19924;-68
2021/12/31 13:56:40;;;;;;;;;;;13.60;99.90;;;;;;5118091;22;20133;-70
2021/12/31 13:59:16;;;;;;;;;;;13.50;99.90;;;;;;5104258;28;19934;-70
2021/12/31 14:01:58;;;;;;;;;;;13.40;99.90;;;;;;5104425;28;19926;-70
2021/12/31 14:04:26;;;;;;;;;;;13.40;99.90;;;;;;5103122;28;19927;-70
2021/12/31 14:06:56;;;;;;;;;;;13.40;99.90;;;;;;5103926;28;20063;-70
2021/12/31 14:09:22;;;;;;;;;;;13.40;99.90;;;;;;5103994;28;20225;-70
2021/12/31 14:11:50;;;;;;;;;;;13.40;99.90;;;;;;5104038;28;19920;-70
2021/12/31 14:14:16;;;;;;;;;;;13.40;99.90;;;;;;5103836;28;19920;-70
2021/12/31 14:16:43;;;;;;;;;;;13.40;99.90;;;;;;5103710;28;19920;-70
2021/12/31 14:19:09;;;;;;;;;;;13.40;99.90;;;;;;5103828;28;19928;-70
2021/12/31 14:21:37;;;;;;;;;;;13.30;99.90;;;;;;5103668;28;19926;-70